sensor_id;sensor_type;location;lat;lon;timestamp;temperature;humidity
71978;DHT22;59848;48.158;11.512;2022-07-03T00:01:01;17.20;72.30
71978;DHT22;59848;48.158;11.512;2022-07-03T00:03:26;17.30;71.40
71978;DHT22;59848;48.158;11.512;2022-07-03T00:05:52;17.40;71.30
71978;DHT22;59848;48.158;11.512;2022-07-03T00:08:18;17.40;70.40
71978;DHT22;59848;48.158;11.512;2022-07-03T00:10:43;17.40;70.50
71978;DHT22;59848;48.158;11.512;2022-07-03T00:13:09;17.50;70.70
71978;DHT22;59848;48.158;11.512;2022-07-03T00:15:34;17.50;70.80
71978;DHT22;59848;48.158;11.512;2022-07-03T00:18:00;17.50;70.50
71978;DHT22;59848;48.158;11.512;2022-07-03T00:20:30;17.60;70.20
71978;DHT22;59848;48.158;11.512;2022-07-03T00:23:03;17.50;71.10
71978;DHT22;59848;48.158;11.512;2022-07-03T00:25:30;17.60;71.10
71978;DHT22;59848;48.158;11.512;2022-07-03T00:27:57;17.60;71.00
71978;DHT22;59848;48.158;11.512;2022-07-03T00:30:22;17.60;72.50
71978;DHT22;59848;48.158;11.512;2022-07-03T00:32:50;17.60;72.20
71978;DHT22;59848;48.158;11.512;2022-07-03T00:35:17;17.50;71.90
71978;DHT22;59848;48.158;11.512;2022-07-03T00:37:43;17.50;72.60
71978;DHT22;59848;48.158;11.512;2022-07-03T00:40:09;17.40;72.60
71978;DHT22;59848;48.158;11.512;2022-07-03T00:42:37;17.30;71.10
71978;DHT22;59848;48.158;11.512;2022-07-03T00:45:07;17.30;71.20
71978;DHT22;59848;48.158;11.512;2022-07-03T00:47:35;17.40;71.10
71978;DHT22;59848;48.158;11.512;2022-07-03T00:50:07;17.40;71.40
71978;DHT22;59848;48.158;11.512;2022-07-03T00:52:33;17.40;71.40
71978;DHT22;59848;48.158;11.512;2022-07-03T00:55:01;17.30;71.60
71978;DHT22;59848;48.158;11.512;2022-07-03T00:57:30;17.30;71.50
71978;DHT22;59848;48.158;11.512;2022-07-03T00:59:56;17.20;72.10
71978;DHT22;59848;48.158;11.512;2022-07-03T01:02:46;17.20;72.50
71978;DHT22;59848;48.158;11.512;2022-07-03T01:05:16;17.10;72.60
71978;DHT22;59848;48.158;11.512;2022-07-03T01:10:54;16.90;73.20
71978;DHT22;59848;48.158;11.512;2022-07-03T01:16:23;16.90;73.30
71978;DHT22;59848;48.158;11.512;2022-07-03T01:18:56;16.80;73.30
71978;DHT22;59848;48.158;11.512;2022-07-03T01:21:34;16.70;73.50
71978;DHT22;59848;48.158;11.512;2022-07-03T01:27:06;16.50;74.30
71978;DHT22;59848;48.158;11.512;2022-07-03T01:29:51;16.50;74.60
71978;DHT22;59848;48.158;11.512;2022-07-03T01:32:19;16.50;75.10
71978;DHT22;59848;48.158;11.512;2022-07-03T01:34:50;16.70;74.80
71978;DHT22;59848;48.158;11.512;2022-07-03T01:37:19;16.70;74.00
71978;DHT22;59848;48.158;11.512;2022-07-03T01:39:46;16.90;73.40
71978;DHT22;59848;48.158;11.512;2022-07-03T01:42:14;16.90;73.20
71978;DHT22;59848;48.158;11.512;2022-07-03T01:44:40;17.00;72.80
71978;DHT22;59848;48.158;11.512;2022-07-03T01:47:06;16.90;72.90
71978;DHT22;59848;48.158;11.512;2022-07-03T01:49:32;17.00;72.60
71978;DHT22;59848;48.158;11.512;2022-07-03T01:52:01;16.90;72.90
71978;DHT22;59848;48.158;11.512;2022-07-03T01:54:28;16.80;72.90
71978;DHT22;59848;48.158;11.512;2022-07-03T01:56:55;16.70;73.30
71978;DHT22;59848;48.158;11.512;2022-07-03T01:59:20;16.70;73.60
71978;DHT22;59848;48.158;11.512;2022-07-03T02:02:00;16.70;73.70
71978;DHT22;59848;48.158;11.512;2022-07-03T02:04:34;16.70;73.50
71978;DHT22;59848;48.158;11.512;2022-07-03T02:07:19;16.70;73.40
71978;DHT22;59848;48.158;11.512;2022-07-03T02:10:04;16.60;74.00
71978;DHT22;59848;48.158;11.512;2022-07-03T02:12:40;16.50;73.90
71978;DHT22;59848;48.158;11.512;2022-07-03T02:15:10;16.50;74.20
71978;DHT22;59848;48.158;11.512;2022-07-03T02:17:44;16.40;74.00
71978;DHT22;59848;48.158;11.512;2022-07-03T02:20:11;16.30;74.40
71978;DHT22;59848;48.158;11.512;2022-07-03T02:22:40;16.20;74.80
71978;DHT22;59848;48.158;11.512;2022-07-03T02:25:13;16.20;75.00
71978;DHT22;59848;48.158;11.512;2022-07-03T02:30:28;16.20;75.50
71978;DHT22;59848;48.158;11.512;2022-07-03T02:32:55;16.20;75.70
71978;DHT22;59848;48.158;11.512;2022-07-03T02:35:29;16.20;75.80
71978;DHT22;59848;48.158;11.512;2022-07-03T02:38:19;16.20;75.90
71978;DHT22;59848;48.158;11.512;2022-07-03T02:43:38;16.40;76.10
71978;DHT22;59848;48.158;11.512;2022-07-03T02:51:57;16.50;76.00
71978;DHT22;59848;48.158;11.512;2022-07-03T02:54:26;16.50;76.10
71978;DHT22;59848;48.158;11.512;2022-07-03T02:57:06;16.30;76.40
71978;DHT22;59848;48.158;11.512;2022-07-03T03:05:05;16.20;77.80
71978;DHT22;59848;48.158;11.512;2022-07-03T03:10:37;16.20;78.20
71978;DHT22;59848;48.158;11.512;2022-07-03T03:13:06;16.10;78.70
71978;DHT22;59848;48.158;11.512;2022-07-03T03:15:34;16.10;78.90
71978;DHT22;59848;48.158;11.512;2022-07-03T03:18:05;16.20;78.80
71978;DHT22;59848;48.158;11.512;2022-07-03T03:20:35;16.20;79.10
71978;DHT22;59848;48.158;11.512;2022-07-03T03:26:04;16.20;78.80
71978;DHT22;59848;48.158;11.512;2022-07-03T03:28:30;16.20;78.70
71978;DHT22;59848;48.158;11.512;2022-07-03T03:30:56;16.20;79.00
71978;DHT22;59848;48.158;11.512;2022-07-03T03:33:22;16.20;78.70
71978;DHT22;59848;48.158;11.512;2022-07-03T03:35:48;16.10;79.10
71978;DHT22;59848;48.158;11.512;2022-07-03T03:38:13;16.00;79.00
71978;DHT22;59848;48.158;11.512;2022-07-03T03:40:40;16.00;79.40
71978;DHT22;59848;48.158;11.512;2022-07-03T03:43:05;16.10;79.60
71978;DHT22;59848;48.158;11.512;2022-07-03T03:45:31;16.00;79.60
71978;DHT22;59848;48.158;11.512;2022-07-03T03:47:57;16.00;79.70
71978;DHT22;59848;48.158;11.512;2022-07-03T03:50:23;16.10;79.90
71978;DHT22;59848;48.158;11.512;2022-07-03T03:52:49;16.10;79.80
71978;DHT22;59848;48.158;11.512;2022-07-03T03:55:15;16.10;79.40
71978;DHT22;59848;48.158;11.512;2022-07-03T03:57:41;16.20;79.60
71978;DHT22;59848;48.158;11.512;2022-07-03T04:00:07;16.20;79.60
71978;DHT22;59848;48.158;11.512;2022-07-03T04:02:33;16.20;79.60
71978;DHT22;59848;48.158;11.512;2022-07-03T04:04:58;16.20;79.70
71978;DHT22;59848;48.158;11.512;2022-07-03T04:07:24;16.30;79.90
71978;DHT22;59848;48.158;11.512;2022-07-03T04:09:50;16.40;79.30
71978;DHT22;59848;48.158;11.512;2022-07-03T04:12:16;16.50;79.40
71978;DHT22;59848;48.158;11.512;2022-07-03T04:14:41;16.60;79.70
71978;DHT22;59848;48.158;11.512;2022-07-03T04:17:07;16.70;79.40
71978;DHT22;59848;48.158;11.512;2022-07-03T04:19:32;16.70;79.30
71978;DHT22;59848;48.158;11.512;2022-07-03T04:21:58;16.80;79.20
71978;DHT22;59848;48.158;11.512;2022-07-03T04:24:24;16.90;79.30
71978;DHT22;59848;48.158;11.512;2022-07-03T04:26:49;17.00;79.00
71978;DHT22;59848;48.158;11.512;2022-07-03T04:29:15;17.10;78.80
71978;DHT22;59848;48.158;11.512;2022-07-03T04:31:41;17.20;78.50
71978;DHT22;59848;48.158;11.512;2022-07-03T04:34:06;17.30;78.20
71978;DHT22;59848;48.158;11.512;2022-07-03T04:36:32;17.30;78.10
71978;DHT22;59848;48.158;11.512;2022-07-03T04:38:57;17.40;78.00
71978;DHT22;59848;48.158;11.512;2022-07-03T04:41:23;17.50;78.10
71978;DHT22;59848;48.158;11.512;2022-07-03T04:43:48;17.60;77.80
71978;DHT22;59848;48.158;11.512;2022-07-03T04:46:14;17.70;77.90
71978;DHT22;59848;48.158;11.512;2022-07-03T04:48:40;17.80;77.60
71978;DHT22;59848;48.158;11.512;2022-07-03T04:51:05;17.90;77.60
71978;DHT22;59848;48.158;11.512;2022-07-03T04:53:31;18.00;77.30
71978;DHT22;59848;48.158;11.512;2022-07-03T04:55:57;18.10;76.90
71978;DHT22;59848;48.158;11.512;2022-07-03T04:58:22;18.30;76.50
71978;DHT22;59848;48.158;11.512;2022-07-03T05:00:48;18.40;76.00
71978;DHT22;59848;48.158;11.512;2022-07-03T05:03:13;18.50;75.60
71978;DHT22;59848;48.158;11.512;2022-07-03T05:05:39;18.70;75.20
71978;DHT22;59848;48.158;11.512;2022-07-03T05:08:05;18.80;74.70
71978;DHT22;59848;48.158;11.512;2022-07-03T05:10:31;19.00;74.00
71978;DHT22;59848;48.158;11.512;2022-07-03T05:12:56;19.20;73.60
71978;DHT22;59848;48.158;11.512;2022-07-03T05:15:22;19.50;72.60
71978;DHT22;59848;48.158;11.512;2022-07-03T05:17:48;19.70;71.90
71978;DHT22;59848;48.158;11.512;2022-07-03T05:20:14;20.10;70.30
71978;DHT22;59848;48.158;11.512;2022-07-03T05:22:57;20.30;69.60
71978;DHT22;59848;48.158;11.512;2022-07-03T05:25:23;20.60;68.60
71978;DHT22;59848;48.158;11.512;2022-07-03T05:27:49;20.90;68.10
71978;DHT22;59848;48.158;11.512;2022-07-03T05:30:22;21.20;67.30
71978;DHT22;59848;48.158;11.512;2022-07-03T05:32:49;21.50;66.40
71978;DHT22;59848;48.158;11.512;2022-07-03T05:35:15;21.70;65.60
71978;DHT22;59848;48.158;11.512;2022-07-03T05:37:40;22.10;64.20
71978;DHT22;59848;48.158;11.512;2022-07-03T05:40:07;22.30;63.70
71978;DHT22;59848;48.158;11.512;2022-07-03T05:42:33;22.60;63.40
71978;DHT22;59848;48.158;11.512;2022-07-03T05:44:59;22.70;62.50
71978;DHT22;59848;48.158;11.512;2022-07-03T05:47:24;22.80;62.30
71978;DHT22;59848;48.158;11.512;2022-07-03T05:49:50;22.80;62.80
71978;DHT22;59848;48.158;11.512;2022-07-03T05:52:16;22.80;62.00
71978;DHT22;59848;48.158;11.512;2022-07-03T05:54:42;22.80;61.70
71978;DHT22;59848;48.158;11.512;2022-07-03T05:57:07;23.10;61.50
71978;DHT22;59848;48.158;11.512;2022-07-03T05:59:33;23.20;60.10
71978;DHT22;59848;48.158;11.512;2022-07-03T06:01:58;23.20;60.10
71978;DHT22;59848;48.158;11.512;2022-07-03T06:04:24;23.30;59.60
71978;DHT22;59848;48.158;11.512;2022-07-03T06:06:49;23.40;59.70
71978;DHT22;59848;48.158;11.512;2022-07-03T06:09:15;23.60;59.30
71978;DHT22;59848;48.158;11.512;2022-07-03T06:11:40;24.00;57.60
71978;DHT22;59848;48.158;11.512;2022-07-03T06:14:06;24.30;56.00
71978;DHT22;59848;48.158;11.512;2022-07-03T06:16:31;23.90;56.10
71978;DHT22;59848;48.158;11.512;2022-07-03T06:18:58;23.80;56.50
71978;DHT22;59848;48.158;11.512;2022-07-03T06:21:24;24.20;54.40
71978;DHT22;59848;48.158;11.512;2022-07-03T06:23:50;24.00;55.50
71978;DHT22;59848;48.158;11.512;2022-07-03T06:26:16;24.00;56.00
71978;DHT22;59848;48.158;11.512;2022-07-03T06:28:42;24.10;55.80
71978;DHT22;59848;48.158;11.512;2022-07-03T06:31:07;24.10;55.10
71978;DHT22;59848;48.158;11.512;2022-07-03T06:33:33;24.50;54.60
71978;DHT22;59848;48.158;11.512;2022-07-03T06:35:58;24.50;53.00
71978;DHT22;59848;48.158;11.512;2022-07-03T06:38:24;24.70;53.00
71978;DHT22;59848;48.158;11.512;2022-07-03T06:40:49;24.60;52.40
71978;DHT22;59848;48.158;11.512;2022-07-03T06:43:15;24.90;52.50
71978;DHT22;59848;48.158;11.512;2022-07-03T06:45:41;24.90;51.00
71978;DHT22;59848;48.158;11.512;2022-07-03T06:48:06;25.20;50.70
71978;DHT22;59848;48.158;11.512;2022-07-03T06:50:32;25.20;50.90
71978;DHT22;59848;48.158;11.512;2022-07-03T06:52:57;25.60;50.50
71978;DHT22;59848;48.158;11.512;2022-07-03T06:55:23;25.90;49.60
71978;DHT22;59848;48.158;11.512;2022-07-03T06:57:48;25.60;49.50
71978;DHT22;59848;48.158;11.512;2022-07-03T07:00:14;25.50;50.00
71978;DHT22;59848;48.158;11.512;2022-07-03T07:02:40;25.50;49.30
71978;DHT22;59848;48.158;11.512;2022-07-03T07:05:05;25.60;49.40
71978;DHT22;59848;48.158;11.512;2022-07-03T07:07:31;25.70;49.50
71978;DHT22;59848;48.158;11.512;2022-07-03T07:09:57;25.90;49.20
71978;DHT22;59848;48.158;11.512;2022-07-03T07:12:22;25.80;49.60
71978;DHT22;59848;48.158;11.512;2022-07-03T07:14:48;26.00;49.30
71978;DHT22;59848;48.158;11.512;2022-07-03T07:17:13;26.00;49.90
71978;DHT22;59848;48.158;11.512;2022-07-03T07:19:39;25.70;50.70
71978;DHT22;59848;48.158;11.512;2022-07-03T07:22:04;25.60;50.70
71978;DHT22;59848;48.158;11.512;2022-07-03T07:24:30;25.60;50.60
71978;DHT22;59848;48.158;11.512;2022-07-03T07:26:55;26.10;50.00
71978;DHT22;59848;48.158;11.512;2022-07-03T07:29:21;26.00;50.30
71978;DHT22;59848;48.158;11.512;2022-07-03T07:31:46;26.30;49.30
71978;DHT22;59848;48.158;11.512;2022-07-03T07:34:12;26.00;49.50
71978;DHT22;59848;48.158;11.512;2022-07-03T07:36:39;26.10;49.30
71978;DHT22;59848;48.158;11.512;2022-07-03T07:39:04;26.20;49.40
71978;DHT22;59848;48.158;11.512;2022-07-03T07:41:30;26.20;49.00
71978;DHT22;59848;48.158;11.512;2022-07-03T07:43:56;26.20;48.30
71978;DHT22;59848;48.158;11.512;2022-07-03T07:46:21;26.60;48.10
71978;DHT22;59848;48.158;11.512;2022-07-03T07:48:47;26.70;48.10
71978;DHT22;59848;48.158;11.512;2022-07-03T07:51:12;26.40;47.40
71978;DHT22;59848;48.158;11.512;2022-07-03T07:53:38;26.50;47.40
71978;DHT22;59848;48.158;11.512;2022-07-03T07:56:04;26.70;46.80
71978;DHT22;59848;48.158;11.512;2022-07-03T07:58:29;26.60;46.60
71978;DHT22;59848;48.158;11.512;2022-07-03T08:00:55;26.50;45.90
71978;DHT22;59848;48.158;11.512;2022-07-03T08:03:39;26.40;47.30
71978;DHT22;59848;48.158;11.512;2022-07-03T08:06:23;26.30;47.00
71978;DHT22;59848;48.158;11.512;2022-07-03T08:08:49;26.20;47.30
71978;DHT22;59848;48.158;11.512;2022-07-03T08:11:14;26.00;47.90
71978;DHT22;59848;48.158;11.512;2022-07-03T08:13:40;26.10;46.30
71978;DHT22;59848;48.158;11.512;2022-07-03T08:16:06;26.40;46.20
71978;DHT22;59848;48.158;11.512;2022-07-03T08:18:31;26.30;45.70
71978;DHT22;59848;48.158;11.512;2022-07-03T08:20:57;26.40;45.60
71978;DHT22;59848;48.158;11.512;2022-07-03T08:23:22;26.50;46.20
71978;DHT22;59848;48.158;11.512;2022-07-03T08:25:48;26.70;45.60
71978;DHT22;59848;48.158;11.512;2022-07-03T08:28:14;27.00;45.50
71978;DHT22;59848;48.158;11.512;2022-07-03T08:30:39;26.90;45.90
71978;DHT22;59848;48.158;11.512;2022-07-03T08:33:05;27.00;46.00
71978;DHT22;59848;48.158;11.512;2022-07-03T08:35:30;27.00;44.30
71978;DHT22;59848;48.158;11.512;2022-07-03T08:37:56;27.00;44.70
71978;DHT22;59848;48.158;11.512;2022-07-03T08:40:22;27.20;44.50
71978;DHT22;59848;48.158;11.512;2022-07-03T08:42:48;27.50;43.80
71978;DHT22;59848;48.158;11.512;2022-07-03T08:45:17;27.20;43.40
71978;DHT22;59848;48.158;11.512;2022-07-03T08:47:44;27.40;43.40
71978;DHT22;59848;48.158;11.512;2022-07-03T08:50:11;27.50;42.50
71978;DHT22;59848;48.158;11.512;2022-07-03T08:52:38;27.60;41.70
71978;DHT22;59848;48.158;11.512;2022-07-03T08:55:04;27.80;42.40
71978;DHT22;59848;48.158;11.512;2022-07-03T08:57:33;27.90;40.00
71978;DHT22;59848;48.158;11.512;2022-07-03T09:00:03;27.90;39.90
71978;DHT22;59848;48.158;11.512;2022-07-03T09:02:30;28.00;40.10
71978;DHT22;59848;48.158;11.512;2022-07-03T09:04:57;28.20;39.40
71978;DHT22;59848;48.158;11.512;2022-07-03T09:07:25;28.40;37.80
71978;DHT22;59848;48.158;11.512;2022-07-03T09:09:51;28.10;38.50
71978;DHT22;59848;48.158;11.512;2022-07-03T09:12:18;27.70;38.30
71978;DHT22;59848;48.158;11.512;2022-07-03T09:14:44;28.10;38.30
71978;DHT22;59848;48.158;11.512;2022-07-03T09:17:10;27.60;38.50
71978;DHT22;59848;48.158;11.512;2022-07-03T09:19:46;27.80;38.90
71978;DHT22;59848;48.158;11.512;2022-07-03T09:22:33;27.90;38.90
71978;DHT22;59848;48.158;11.512;2022-07-03T09:25:09;28.00;38.20
71978;DHT22;59848;48.158;11.512;2022-07-03T09:27:36;28.10;37.70
71978;DHT22;59848;48.158;11.512;2022-07-03T09:30:06;28.20;36.70
71978;DHT22;59848;48.158;11.512;2022-07-03T09:35:12;28.30;36.70
71978;DHT22;59848;48.158;11.512;2022-07-03T09:37:37;28.60;37.10
71978;DHT22;59848;48.158;11.512;2022-07-03T09:40:03;28.70;36.60
71978;DHT22;59848;48.158;11.512;2022-07-03T09:42:29;28.60;36.10
71978;DHT22;59848;48.158;11.512;2022-07-03T09:44:55;28.60;36.50
71978;DHT22;59848;48.158;11.512;2022-07-03T09:47:24;28.80;36.70
71978;DHT22;59848;48.158;11.512;2022-07-03T09:49:54;28.90;36.50
71978;DHT22;59848;48.158;11.512;2022-07-03T09:52:42;29.00;36.50
71978;DHT22;59848;48.158;11.512;2022-07-03T09:57:40;28.70;37.40
71978;DHT22;59848;48.158;11.512;2022-07-03T10:00:22;28.70;37.30
71978;DHT22;59848;48.158;11.512;2022-07-03T10:02:58;28.70;37.20
71978;DHT22;59848;48.158;11.512;2022-07-03T10:05:32;29.10;36.10
71978;DHT22;59848;48.158;11.512;2022-07-03T10:08:00;28.90;36.80
71978;DHT22;59848;48.158;11.512;2022-07-03T10:10:29;29.00;36.80
71978;DHT22;59848;48.158;11.512;2022-07-03T10:12:55;29.00;36.00
71978;DHT22;59848;48.158;11.512;2022-07-03T10:15:22;28.80;36.60
71978;DHT22;59848;48.158;11.512;2022-07-03T10:17:49;29.00;36.70
71978;DHT22;59848;48.158;11.512;2022-07-03T10:20:23;29.20;36.60
71978;DHT22;59848;48.158;11.512;2022-07-03T10:22:49;29.20;35.60
71978;DHT22;59848;48.158;11.512;2022-07-03T10:25:16;29.20;36.40
71978;DHT22;59848;48.158;11.512;2022-07-03T10:27:46;28.80;35.00
71978;DHT22;59848;48.158;11.512;2022-07-03T10:30:18;29.20;33.90
71978;DHT22;59848;48.158;11.512;2022-07-03T10:32:54;29.40;33.30
71978;DHT22;59848;48.158;11.512;2022-07-03T10:35:44;29.40;33.50
71978;DHT22;59848;48.158;11.512;2022-07-03T10:41:04;29.20;33.60
71978;DHT22;59848;48.158;11.512;2022-07-03T10:43:51;29.60;33.00
71978;DHT22;59848;48.158;11.512;2022-07-03T10:46:36;29.80;30.70
71978;DHT22;59848;48.158;11.512;2022-07-03T10:49:04;29.70;30.90
71978;DHT22;59848;48.158;11.512;2022-07-03T11:02:18;29.50;30.40
71978;DHT22;59848;48.158;11.512;2022-07-03T11:07:22;29.60;28.70
71978;DHT22;59848;48.158;11.512;2022-07-03T11:23:23;30.30;28.40
71978;DHT22;59848;48.158;11.512;2022-07-03T11:25:53;30.40;28.10
71978;DHT22;59848;48.158;11.512;2022-07-03T11:33:56;30.70;27.40
71978;DHT22;59848;48.158;11.512;2022-07-03T11:41:43;30.30;27.90
71978;DHT22;59848;48.158;11.512;2022-07-03T11:44:14;30.90;27.00
71978;DHT22;59848;48.158;11.512;2022-07-03T11:46:40;31.00;26.90
71978;DHT22;59848;48.158;11.512;2022-07-03T11:49:10;31.00;27.70
71978;DHT22;59848;48.158;11.512;2022-07-03T11:51:37;30.80;26.90
71978;DHT22;59848;48.158;11.512;2022-07-03T11:54:04;30.60;27.10
71978;DHT22;59848;48.158;11.512;2022-07-03T11:56:31;30.60;26.90
71978;DHT22;59848;48.158;11.512;2022-07-03T11:59:00;30.90;27.50
71978;DHT22;59848;48.158;11.512;2022-07-03T12:03:51;31.20;26.30
71978;DHT22;59848;48.158;11.512;2022-07-03T12:06:18;31.50;26.10
71978;DHT22;59848;48.158;11.512;2022-07-03T12:08:45;31.00;26.30
71978;DHT22;59848;48.158;11.512;2022-07-03T12:11:17;31.10;26.30
71978;DHT22;59848;48.158;11.512;2022-07-03T12:13:43;31.30;27.10
71978;DHT22;59848;48.158;11.512;2022-07-03T12:16:10;31.50;27.30
71978;DHT22;59848;48.158;11.512;2022-07-03T12:18:50;31.70;27.10
71978;DHT22;59848;48.158;11.512;2022-07-03T12:21:18;32.10;26.90
71978;DHT22;59848;48.158;11.512;2022-07-03T12:23:54;32.20;26.30
71978;DHT22;59848;48.158;11.512;2022-07-03T12:26:27;32.20;25.90
71978;DHT22;59848;48.158;11.512;2022-07-03T12:28:54;32.10;25.60
71978;DHT22;59848;48.158;11.512;2022-07-03T12:31:20;31.70;26.30
71978;DHT22;59848;48.158;11.512;2022-07-03T12:33:46;31.80;26.20
71978;DHT22;59848;48.158;11.512;2022-07-03T12:36:12;31.80;26.30
71978;DHT22;59848;48.158;11.512;2022-07-03T12:38:38;31.80;26.40
71978;DHT22;59848;48.158;11.512;2022-07-03T12:41:07;32.00;26.30
71978;DHT22;59848;48.158;11.512;2022-07-03T12:43:37;32.00;27.10
71978;DHT22;59848;48.158;11.512;2022-07-03T12:46:21;32.10;26.40
71978;DHT22;59848;48.158;11.512;2022-07-03T12:48:48;32.30;26.70
71978;DHT22;59848;48.158;11.512;2022-07-03T12:51:14;32.20;26.30
71978;DHT22;59848;48.158;11.512;2022-07-03T12:53:39;32.40;26.90
71978;DHT22;59848;48.158;11.512;2022-07-03T12:56:08;32.60;26.20
71978;DHT22;59848;48.158;11.512;2022-07-03T12:58:34;32.40;27.00
71978;DHT22;59848;48.158;11.512;2022-07-03T13:01:30;32.40;27.10
71978;DHT22;59848;48.158;11.512;2022-07-03T13:03:58;32.10;27.00
71978;DHT22;59848;48.158;11.512;2022-07-03T13:06:25;32.60;26.90
71978;DHT22;59848;48.158;11.512;2022-07-03T13:08:53;32.40;27.10
71978;DHT22;59848;48.158;11.512;2022-07-03T13:16:37;33.00;27.00
71978;DHT22;59848;48.158;11.512;2022-07-03T13:19:05;33.50;26.40
71978;DHT22;59848;48.158;11.512;2022-07-03T13:21:31;34.00;25.00
71978;DHT22;59848;48.158;11.512;2022-07-03T13:23:56;34.10;25.40
71978;DHT22;59848;48.158;11.512;2022-07-03T13:26:22;34.10;25.10
71978;DHT22;59848;48.158;11.512;2022-07-03T13:28:48;33.70;25.70
71978;DHT22;59848;48.158;11.512;2022-07-03T13:31:14;34.40;25.30
71978;DHT22;59848;48.158;11.512;2022-07-03T13:33:39;35.30;24.50
71978;DHT22;59848;48.158;11.512;2022-07-03T13:36:05;35.30;23.80
71978;DHT22;59848;48.158;11.512;2022-07-03T13:38:31;35.50;23.70
71978;DHT22;59848;48.158;11.512;2022-07-03T13:40:56;35.70;23.80
71978;DHT22;59848;48.158;11.512;2022-07-03T13:43:22;35.70;23.60
71978;DHT22;59848;48.158;11.512;2022-07-03T13:45:47;35.90;23.20
71978;DHT22;59848;48.158;11.512;2022-07-03T13:48:13;36.70;22.90
71978;DHT22;59848;48.158;11.512;2022-07-03T13:50:41;36.30;23.90
71978;DHT22;59848;48.158;11.512;2022-07-03T13:53:07;36.20;23.30
71978;DHT22;59848;48.158;11.512;2022-07-03T13:55:33;36.30;23.20
71978;DHT22;59848;48.158;11.512;2022-07-03T13:57:58;35.50;23.50
71978;DHT22;59848;48.158;11.512;2022-07-03T14:00:24;36.50;22.70
71978;DHT22;59848;48.158;11.512;2022-07-03T14:02:49;36.80;22.70
71978;DHT22;59848;48.158;11.512;2022-07-03T14:05:15;37.30;21.90
71978;DHT22;59848;48.158;11.512;2022-07-03T14:07:41;37.50;22.20
71978;DHT22;59848;48.158;11.512;2022-07-03T14:10:08;37.00;22.80
71978;DHT22;59848;48.158;11.512;2022-07-03T14:12:33;37.80;21.60
71978;DHT22;59848;48.158;11.512;2022-07-03T14:14:59;37.70;21.50
71978;DHT22;59848;48.158;11.512;2022-07-03T14:17:24;38.20;21.70
71978;DHT22;59848;48.158;11.512;2022-07-03T14:19:52;37.20;22.20
71978;DHT22;59848;48.158;11.512;2022-07-03T14:22:18;37.80;20.90
71978;DHT22;59848;48.158;11.512;2022-07-03T14:24:43;38.20;20.50
71978;DHT22;59848;48.158;11.512;2022-07-03T14:27:09;38.50;21.00
71978;DHT22;59848;48.158;11.512;2022-07-03T14:29:53;37.70;21.10
71978;DHT22;59848;48.158;11.512;2022-07-03T14:32:38;38.20;20.70
71978;DHT22;59848;48.158;11.512;2022-07-03T14:35:04;37.20;22.10
71978;DHT22;59848;48.158;11.512;2022-07-03T14:37:30;37.70;20.60
71978;DHT22;59848;48.158;11.512;2022-07-03T14:39:55;38.20;21.10
71978;DHT22;59848;48.158;11.512;2022-07-03T14:42:21;37.70;21.50
71978;DHT22;59848;48.158;11.512;2022-07-03T14:44:47;38.30;21.50
71978;DHT22;59848;48.158;11.512;2022-07-03T14:47:13;39.00;21.10
71978;DHT22;59848;48.158;11.512;2022-07-03T14:49:39;39.80;20.60
71978;DHT22;59848;48.158;11.512;2022-07-03T14:52:05;38.60;20.30
71978;DHT22;59848;48.158;11.512;2022-07-03T14:54:31;38.20;20.90
71978;DHT22;59848;48.158;11.512;2022-07-03T14:56:58;39.80;19.40
71978;DHT22;59848;48.158;11.512;2022-07-03T14:59:45;39.70;19.40
71978;DHT22;59848;48.158;11.512;2022-07-03T15:02:20;38.10;20.90
71978;DHT22;59848;48.158;11.512;2022-07-03T15:07:36;40.40;18.50
71978;DHT22;59848;48.158;11.512;2022-07-03T15:10:08;39.40;19.50
71978;DHT22;59848;48.158;11.512;2022-07-03T15:12:38;40.20;18.90
71978;DHT22;59848;48.158;11.512;2022-07-03T15:15:11;40.30;18.40
71978;DHT22;59848;48.158;11.512;2022-07-03T15:17:38;40.80;18.30
71978;DHT22;59848;48.158;11.512;2022-07-03T15:20:06;41.00;18.40
71978;DHT22;59848;48.158;11.512;2022-07-03T15:22:33;41.00;18.60
71978;DHT22;59848;48.158;11.512;2022-07-03T15:24:59;40.90;18.50
71978;DHT22;59848;48.158;11.512;2022-07-03T15:27:28;39.70;20.10
71978;DHT22;59848;48.158;11.512;2022-07-03T15:29:55;40.00;19.70
71978;DHT22;59848;48.158;11.512;2022-07-03T15:32:21;38.80;20.10
71978;DHT22;59848;48.158;11.512;2022-07-03T15:34:48;40.00;19.50
71978;DHT22;59848;48.158;11.512;2022-07-03T15:37:39;41.00;19.20
71978;DHT22;59848;48.158;11.512;2022-07-03T15:40:18;40.50;19.00
71978;DHT22;59848;48.158;11.512;2022-07-03T15:51:22;40.80;18.10
71978;DHT22;59848;48.158;11.512;2022-07-03T15:53:56;40.90;18.50
71978;DHT22;59848;48.158;11.512;2022-07-03T15:56:34;40.40;18.60
71978;DHT22;59848;48.158;11.512;2022-07-03T15:59:05;41.50;18.30
71978;DHT22;59848;48.158;11.512;2022-07-03T16:01:43;41.40;18.30
71978;DHT22;59848;48.158;11.512;2022-07-03T16:04:29;41.20;18.70
71978;DHT22;59848;48.158;11.512;2022-07-03T16:07:01;39.90;19.30
71978;DHT22;59848;48.158;11.512;2022-07-03T16:09:27;41.50;18.20
71978;DHT22;59848;48.158;11.512;2022-07-03T16:11:53;41.80;18.30
71978;DHT22;59848;48.158;11.512;2022-07-03T16:14:19;1.00;1.00
71978;DHT22;59848;48.158;11.512;2022-07-03T16:16:45;1.00;1.00
71978;DHT22;59848;48.158;11.512;2022-07-03T16:19:12;1.00;1.00
71978;DHT22;59848;48.158;11.512;2022-07-03T16:21:38;42.70;17.00
71978;DHT22;59848;48.158;11.512;2022-07-03T16:24:05;42.20;17.50
71978;DHT22;59848;48.158;11.512;2022-07-03T16:26:34;39.70;19.70
71978;DHT22;59848;48.158;11.512;2022-07-03T16:29:00;40.20;19.40
71978;DHT22;59848;48.158;11.512;2022-07-03T16:31:40;39.80;19.30
71978;DHT22;59848;48.158;11.512;2022-07-03T16:36:47;39.50;19.90
71978;DHT22;59848;48.158;11.512;2022-07-03T16:39:24;40.20;20.40
71978;DHT22;59848;48.158;11.512;2022-07-03T16:41:51;41.20;18.90
71978;DHT22;59848;48.158;11.512;2022-07-03T16:44:20;41.60;18.40
71978;DHT22;59848;48.158;11.512;2022-07-03T16:46:50;40.50;19.10
71978;DHT22;59848;48.158;11.512;2022-07-03T16:49:21;40.30;19.30
71978;DHT22;59848;48.158;11.512;2022-07-03T16:51:54;39.80;19.80
71978;DHT22;59848;48.158;11.512;2022-07-03T16:54:20;39.80;19.70
71978;DHT22;59848;48.158;11.512;2022-07-03T16:56:48;40.70;18.40
71978;DHT22;59848;48.158;11.512;2022-07-03T16:59:16;39.80;19.50
71978;DHT22;59848;48.158;11.512;2022-07-03T17:01:41;39.30;19.80
71978;DHT22;59848;48.158;11.512;2022-07-03T17:04:08;39.10;20.50